Tiempo atmosférico en la estación meteorológica de Torrelavega, Sierrapando, Cantabria (100 m.)



Fecha
DESCASC
Temp. máxima en grados centígrados (hora)
DESCASC
Temp. mínima en grados centígrados (hora)
DESCASC
Temp. media en grados centígrados
DESCASC
Racha de viento máxima en m/sg (hora)
DESCASC
Velocidad máxima media en intervalos de 10 minutos(hora)
DESCASC
Precipitaciones diarias en mm
DESCASC
Precipitaciones de 00:00 a 06:00 en mm
DESCASC
Precipitaciones de 06:00 a 12:00 en mm
DESCASC
Precipitaciones de 12:00 a 18:00 en mm
DESCASC
Precipitaciones de 18:00 a 24:00 en mm
DESCASC
19-09-2019 23.8 (13:10) 15.5 (07:40) 19.6 6.67 (15:10) 4.72 (17:00) 0 0 0 0 0
18-09-2019 22.6 (13:00) 18.2 (22:20) 20.4 6.11 (14:00) 4.17 (13:50) 0.4 0.4 0 0 0
17-09-2019 -- (--) -- (--) -- -- (--) -- (--) -- 0 -- 0 0
16-09-2019 23.4 (12:50) 16.3 (00:00) 19.8 6.94 (13:20) 5 (13:30) 0.2 0.2 0 0 0
15-09-2019 23.9 (14:50) 17 (00:00) 20.4 5.56 (15:40) 3.89 (15:40) 1.4 0 1 0 0.4
14-09-2019 24.5 (13:40) 16.4 (00:00) 20.4 6.67 (14:00) 4.72 (14:40) 0 0 0 0 0
13-09-2019 -- (--) -- (--) -- -- (--) -- (--) -- -- -- 0 0
12-09-2019 -- (--) -- (--) -- -- (--) -- (--) -- 0 0 0 --
11-09-2019 -- (--) -- (--) -- -- (--) -- (--) -- -- 0 0 0
10-09-2019 -- (--) -- (--) -- -- (--) -- (--) -- -- 28.8 0.2 --
09-09-2019 21.6 (13:00) 11.6 (05:40) 16.6 -- (--) -- (--) 7.2 0 0 0 7.2
08-09-2019 21.4 (14:20) 13.5 (00:00) 17.4 -- (--) -- (--) 0.4 0 0.4 0 0
07-09-2019 21.6 (12:50) 11.1 (00:00) 16.4 6.67 (15:10) 4.17 (15:10) 0 0 0 0 0
06-09-2019 21 (14:20) 13 (00:00) 17 8.89 (17:00) 6.39 (17:00) 0 0 0 0 0
05-09-2019 20.1 (14:20) 15 (00:00) 17.6 10 (16:30) 7.22 (16:40) 5 4 0 0.8 0.2
04-09-2019 23.1 (13:20) 12.3 (00:00) 17.7 8.06 (16:30) 5.56 (14:40) 0 0 0 0 0
03-09-2019 24 (14:20) 12 (00:00) 18 11.11 (14:50) 7.22 (14:50) 0 0 0 0 0
02-09-2019 21.8 (16:10) 14.8 (00:00) 18.3 7.22 (20:00) 5.28 (19:40) 0 0 0 0 0
01-09-2019 21 (13:40) 15.2 (00:00) 18.1 10.56 (15:30) 6.94 (15:40) 11 0.2 1.8 6.6 2.4
31-08-2019 22 (17:20) 19.1 (00:00) 20.6 5.83 (13:00) 3.61 (13:00) 0.6 0 0 0 0.6
30-08-2019 26.3 (12:50) 18.9 (00:00) 22.6 8.33 (15:20) 6.11 (15:20) 0 0 0 0 0
29-08-2019 24.4 (14:40) 19.3 (00:00) 21.8 6.94 (16:50) 5 (16:50) 0 0 0 0 0
28-08-2019 24.2 (11:20) 18.4 (00:00) 21.3 5.28 (14:50) 3.89 (14:50) 0 0 0 0 0
27-08-2019 25.7 (12:40) 16.4 (00:00) 21.1 6.11 (17:10) 4.44 (16:20) 0 0 0 0 0
26-08-2019 25.1 (15:00) 16.4 (00:00) 20.8 8.61 (22:30) 6.11 (22:10) 7.4 0.4 0 6 1
25-08-2019 21.4 (16:10) 18 (00:00) 19.7 6.94 (22:40) 4.72 (22:40) 2.6 0 0 0 2.6
24-08-2019 23.1 (11:20) 17.2 (00:00) 20.2 7.78 (13:00) 5 (13:00) 0 0 0 0 0
23-08-2019 28.2 (16:20) 13.4 (00:00) 20.8 6.11 (02:40) 4.44 (02:40) 0 0 0 0 0
22-08-2019 26.4 (14:40) 13.6 (00:00) 20 9.44 (16:00) 7.5 (16:30) 0 0 0 0 0
21-08-2019 24.1 (15:10) 14 (00:00) 19.1 8.33 (16:10) 6.11 (15:50) 0 0 0 0 0

Gráficas

Temp. máximas Temp. mínimas Temp. medias Precipitaciones Rachas de viento máximas Velocidades máximas media en intervalos de 10 minutos

Datos horarios

Fecha y hora oficial Temperatura (ºC) Velocidad del viento (km/h) Dirección del viento Racha (km/h) Dirección de racha Precipitación (mm) Presión (hPa) Tendencia (hPa) Humedad (%)
2019-09-19 23:00:00 16.3 4 Sudeste 10 Sudeste 0 -- -- 90
2019-09-19 22:00:00 16.9 4 Sudeste 9 Este 0 -- -- 87
2019-09-19 21:00:00 17.8 2 Norte 9 Este 0 -- -- 83
2019-09-19 20:00:00 18.3 8 Nordeste 18 Nordeste 0 -- -- 81
2019-09-19 19:00:00 19.7 14 Nordeste 21 Norte 0 -- -- 77
2019-09-19 18:00:00 21.1 14 Nordeste 23 Nordeste 0 -- -- 73
2019-09-19 17:00:00 21.7 17 Nordeste 24 Nordeste 0 -- -- 72
2019-09-19 16:00:00 22.4 14 Nordeste 24 Nordeste 0 -- -- 76
2019-09-19 15:00:00 22.1 17 Norte 23 Norte 0 -- -- 77
2019-09-19 14:00:00 22.3 15 Nordeste 23 Nordeste 0 -- -- 79
2019-09-19 13:00:00 23.7 6 Este 12 Este 0 -- -- 71
2019-09-19 12:00:00 22.8 3 Sur 9 Sudeste 0 -- -- 72
2019-09-19 11:00:00 21 3 Sudoeste 9 Sur 0 -- -- 81
2019-09-19 10:00:00 18.4 6 Sudeste 11 Sur 0 -- -- 92
2019-09-19 09:00:00 16.6 3 Sur 8 Sur 0 -- -- 98
2019-09-19 08:00:00 15.5 4 Sur 8 Sudoeste 0 -- -- 98
2019-09-19 07:00:00 15.7 7 Sudoeste 10 Sudoeste 0 -- -- 98
2019-09-19 06:00:00 15.9 7 Sur 12 Sudoeste 0 -- -- 97
2019-09-19 05:00:00 16.3 7 Sudoeste 10 Sudoeste 0 -- -- 96
2019-09-19 04:00:00 16.8 3 Sudoeste 10 Sudoeste 0 -- -- 95
2019-09-19 03:00:00 17.5 8 Sudoeste 12 Sur 0 -- -- 93
2019-09-19 02:00:00 18.1 10 Sudoeste 12 Sudoeste 0 -- -- 92
2019-09-19 01:00:00 18.1 6 Nordeste 7 Nordeste 0 -- -- 92
2019-09-19 00:00:00 18.3 3 Nordeste 8 Nordeste 0 -- -- 92
2019-09-18 23:00:00 18.2 5 Este 8 Nordeste 0 -- -- 92
2019-09-18 22:00:00 18.3 7 Nordeste 10 Norte 0 -- -- 92
2019-09-18 21:00:00 18.4 6 Nordeste 9 Nordeste 0 -- -- 92
2019-09-18 20:00:00 19 8 Nordeste 13 Norte 0 -- -- 89
2019-09-18 19:00:00 20.3 10 Norte 18 Nordeste 0 -- -- 85
2019-09-18 18:00:00 21.2 15 Nordeste 20 Nordeste 0 -- -- 83
2019-09-18 17:00:00 22.3 11 Nordeste 20 Nordeste 0 -- -- 82
2019-09-18 16:00:00 22.5 15 Nordeste 22 Nordeste 0 -- -- 84
2019-09-18 15:00:00 21.9 11 Norte 21 Noroeste 0 -- -- 85
2019-09-18 14:00:00 22.6 13 Noroeste 22 Noroeste 0 -- -- 87
2019-09-18 13:00:00 22.6 8 Noroeste 18 Noroeste 0 -- -- 84
2019-09-18 12:00:00 21.7 9 Oeste 14 Sudoeste 0 -- -- 86
2019-09-18 11:00:00 21.2 6 Oeste 14 Oeste 0 -- -- 90
2019-09-18 10:00:00 19.3 5 Sudoeste 10 Sudoeste 0 -- -- 98
2019-09-18 09:00:00 18.6 8 Sudoeste 10 Sudoeste 0 -- -- 98
2019-09-18 08:00:00 18.6 7 Sudoeste 9 Sudoeste 0 -- -- 98
2019-09-18 07:00:00 18.5 5 Sudoeste 9 Sudoeste 0 -- -- 98
2019-09-18 06:00:00 18.5 5 Sudoeste 8 Oeste 0.4 -- -- 97
2019-09-18 05:00:00 18.6 4 Noroeste 9 Sudeste 0 -- -- 97
2019-09-18 04:00:00 18.7 8 Sudeste 11 Sudeste 0 -- -- 96
2019-09-18 03:00:00 18.9 9 Sudoeste 11 Sudoeste 0 -- -- 96
2019-09-18 02:00:00 19.3 9 Oeste 12 Oeste 0 -- -- 95
2019-09-18 01:00:00 19.7 8 Oeste 13 Noroeste 0 -- -- 95
2019-09-18 00:00:00 19.8 9 Noroeste 15 Noroeste 0 -- -- 95
2019-09-17 23:00:00 19.8 5 Oeste 15 Noroeste 0 -- -- 95
2019-09-17 22:00:00 19.8 6 Noroeste 13 Oeste 0 -- -- 95
2019-09-17 21:00:00 19.8 8 Noroeste 13 Noroeste 0 -- -- 94
2019-09-15 18:00:00 21.1 6 Norte 13 Nordeste 0 -- -- 90
2019-09-15 17:00:00 20.8 6 Nordeste 16 Nordeste 0 -- -- 91
2019-09-15 16:00:00 21.3 11 Nordeste 20 Nordeste 0 -- -- 87
2019-09-15 15:00:00 23.7 11 Nordeste 16 Nordeste 0 -- -- 82
2019-09-15 14:00:00 22.5 4 Norte 11 Este 0 -- -- 89
2019-09-15 13:00:00 19.6 5 Sudoeste 10 Este 0 -- -- 98
2019-09-15 12:00:00 18.6 3 Sudoeste 9 Noroeste 0.6 -- -- 99
2019-09-15 11:00:00 17.8 3 Sudoeste 10 Sudoeste 0.4 -- -- 99
2019-09-15 10:00:00 17.6 6 Sudoeste 9 Sudoeste 0 -- -- 99
2019-09-15 09:00:00 17.1 2 Oeste 7 Oeste 0 -- -- 99
2019-09-15 08:00:00 17.1 5 Sudoeste 10 Oeste 0 -- -- 98
2019-09-15 07:00:00 17.3 6 Sudoeste 8 Sudoeste 0 -- -- 98
2019-09-15 06:00:00 17.7 4 Sudoeste 9 Sudoeste 0 -- -- 98
2019-09-15 05:00:00 17.6 6 Sur 11 Sur 0 -- -- 98
2019-09-15 04:00:00 18.1 5 Sur 10 Sur 0 -- -- 98
2019-09-15 03:00:00 18.3 6 Sudoeste 9 Sudoeste 0 -- -- 97
2019-09-15 02:00:00 18.5 5 Sudoeste 7 Sudoeste 0 -- -- 97
2019-09-15 01:00:00 18.7 3 Sudoeste 5 Sudoeste 0 -- -- 97
2019-09-15 00:00:00 18.7 3 Noroeste 7 Sudoeste 0 -- -- 96
2019-09-14 23:00:00 19.1 6 Sudoeste 10 Sur 0 -- -- 96
2019-09-14 22:00:00 19.4 4 Nordeste 7 Norte 0 -- -- 96
2019-09-14 21:00:00 20.1 0 Calma 4 Norte 0 -- -- 93
2019-09-14 20:00:00 20.5 4 Norte 13 Nordeste 0 -- -- 91
2019-09-14 19:00:00 21.6 9 Norte 15 Norte 0 -- -- 87
2019-09-14 18:00:00 22.2 11 Nordeste 18 Nordeste 0 -- -- 84
2019-09-14 17:00:00 22.4 11 Nordeste 23 Nordeste 0 -- -- 83
2019-09-14 16:00:00 23.3 12 Nordeste 21 Nordeste 0 -- -- 80
2019-09-14 15:00:00 22.7 16 Nordeste 23 Nordeste 0 -- -- 83
2019-09-14 14:00:00 24 15 Nordeste 24 Nordeste 0 -- -- 80
2019-09-14 13:00:00 23.9 7 Norte 14 Norte 0 -- -- 81
2019-09-14 12:00:00 23.4 7 Nordeste 15 Nordeste 0 -- -- 81
2019-09-14 11:00:00 22.1 5 Nordeste 9 Nordeste 0 -- -- 81
2019-09-14 10:00:00 19.4 6 Sudoeste 10 Sudoeste 0 -- -- 94
2019-09-14 09:00:00 17.9 5 Sudoeste 12 Sur 0 -- -- 98
2019-09-14 08:00:00 16.4 5 Sudeste 14 Sudeste 0 -- -- 98
2019-09-14 07:00:00 16.7 5 Sur 14 Sudeste 0 -- -- 98
2019-09-14 06:00:00 16.8 9 Sudeste 15 Sudeste 0 -- -- 98
2019-09-14 05:00:00 16.9 6 Sudeste 13 Sur 0 -- -- 98
2019-09-14 04:00:00 17.1 8 Sudeste 14 Sudeste 0 -- -- 98
2019-09-14 03:00:00 17.1 7 Sudeste 13 Sur 0 -- -- 98
2019-09-14 02:00:00 17.5 8 Sur 13 Sudeste 0 -- -- 98
2019-09-14 01:00:00 17.6 6 Sur 9 Sudeste 0 -- -- 97
2019-09-14 00:00:00 18.2 7 Sudeste 10 Sudeste 0 -- -- 96
2019-09-13 23:00:00 18.7 6 Sudeste 8 Sudeste 0 -- -- 95
2019-09-13 22:00:00 18.9 4 Sudeste 7 Sudeste 0 -- -- 95
2019-09-13 21:00:00 18.7 6 Nordeste 10 Norte 0 -- -- 94
2019-09-13 20:00:00 19.4 9 Nordeste 13 Nordeste 0 -- -- 91
2019-09-13 19:00:00 20.2 10 Nordeste 18 Nordeste 0 -- -- 89
2019-09-13 18:00:00 21.2 13 Norte 21 Norte 0 -- -- 85
2019-09-13 17:00:00 21.8 9 Norte 21 Norte 0 -- -- 83
2019-09-13 16:00:00 22 12 Nordeste 22 Norte 0 -- -- 83
2019-09-13 15:00:00 22.3 13 Norte 23 Norte 0 -- -- 83
2019-09-13 14:00:00 22.4 13 Norte 19 Norte 0 -- -- 82
2019-09-13 13:00:00 23.1 6 Este 14 Este -- -- -- 74
2019-09-13 12:00:00 -- -- -- -- -- -- -- -- --
2019-09-13 11:00:00 -- -- -- -- -- -- -- -- --
2019-09-13 10:00:00 -- -- -- -- -- -- -- -- --
2019-09-13 09:00:00 -- -- -- -- -- -- -- -- --
2019-09-13 08:00:00 -- -- -- -- -- -- -- -- --
2019-09-13 07:00:00 -- -- -- -- -- -- -- -- --
2019-09-13 06:00:00 -- -- -- -- -- -- -- -- --
2019-09-13 05:00:00 -- -- -- -- -- -- -- -- --
2019-09-13 04:00:00 -- -- -- -- -- -- -- -- --
2019-09-13 03:00:00 -- -- -- -- -- -- -- -- --
2019-09-13 02:00:00 -- -- -- -- -- -- -- -- --
2019-09-13 01:00:00 -- -- -- -- -- -- -- -- --
2019-09-13 00:00:00 -- -- -- -- -- -- -- -- --
2019-09-12 23:00:00 -- -- -- -- -- -- -- -- --
2019-09-12 22:00:00 -- -- -- -- -- -- -- -- --
2019-09-12 21:00:00 -- -- -- -- -- -- -- -- --
2019-09-12 20:00:00 -- -- -- -- -- -- -- -- --
2019-09-12 19:00:00 -- -- -- -- -- -- -- -- --
2019-09-12 18:00:00 21.2 16 Este 26 Nordeste 0 -- -- 75
2019-09-12 17:00:00 22 17 Nordeste 27 Nordeste 0 -- -- 73
2019-09-12 16:00:00 22 20 Nordeste 32 Este 0 -- -- 75
2019-09-12 15:00:00 22.1 21 Nordeste 33 Este 0 -- -- 72
2019-09-12 14:00:00 22 22 Nordeste 29 Nordeste 0 -- -- 70
2019-09-12 13:00:00 22.1 16 Este 24 Nordeste 0 -- -- 71
2019-09-12 12:00:00 21.3 12 Este 19 Este 0 -- -- 71
2019-09-12 11:00:00 19.1 11 Sudeste 18 Sudeste 0 -- -- 74
2019-09-12 10:00:00 15.8 14 Sudeste 20 Sudeste 0 -- -- 83
2019-09-12 09:00:00 13.9 10 Sur 22 Sudeste 0 -- -- 91
2019-09-12 08:00:00 12.6 15 Sudeste 22 Sudeste 0 -- -- 95
2019-09-12 07:00:00 12.5 6 Sudoeste 15 Sur 0 -- -- 95
2019-09-12 06:00:00 13 10 Sur 17 Sudeste 0 -- -- 95
2019-09-12 05:00:00 13.6 12 Sudeste 18 Sudeste 0 -- -- 94
2019-09-12 04:00:00 14.2 11 Sudeste 16 Sudeste 0 -- -- 93
2019-09-12 03:00:00 14.8 10 Sudeste 15 Sudeste 0 -- -- 92
2019-09-12 02:00:00 15.3 9 Sudoeste 12 Sudoeste 0 -- -- 92
2019-09-12 01:00:00 15.4 8 Sudoeste 15 Sudoeste 0 -- -- 92
2019-09-12 00:00:00 15.5 10 Sudoeste 15 Sudoeste 0 -- -- 91
2019-09-11 23:00:00 15.9 9 Sudoeste 12 Oeste 0 -- -- 89
2019-09-11 22:00:00 16.3 6 Oeste 8 Sudoeste 0 -- -- 87
2019-09-11 21:00:00 16.8 6 Noroeste 10 Norte 0 -- -- 84
2019-09-11 20:00:00 18 8 Norte 15 Norte 0 -- -- 80
2019-09-11 19:00:00 18.5 9 Norte 17 Nordeste 0 -- -- 78
2019-09-11 18:00:00 19.1 10 Nordeste 22 Nordeste 0 -- -- 73
2019-09-11 17:00:00 20.8 9 Norte 19 Norte 0 -- -- 73
2019-09-11 16:00:00 20.2 13 Norte 22 Norte 0 -- -- 71
2019-09-11 15:00:00 19.4 13 Norte 23 Norte 0 -- -- 76
2019-09-11 14:00:00 18.4 13 Norte 19 Norte 0 -- -- 79
2019-09-11 13:00:00 18.5 12 Noroeste 19 Noroeste 0 -- -- 78
2019-09-11 12:00:00 18.2 15 Norte 26 Nordeste 0 -- -- 78
2019-09-11 11:00:00 18.6 14 Norte 19 Norte 0 -- -- 81
2019-09-11 10:00:00 16.6 6 Noroeste 10 Noroeste 0 -- -- 88
2019-09-11 09:00:00 14.7 8 Oeste 11 Sudoeste 0 -- -- 92
2019-09-11 08:00:00 14.4 9 Oeste 12 Oeste 0 -- -- 91
2019-09-11 07:00:00 14.4 8 Sudoeste 14 Oeste 0 -- -- 91
2019-09-11 06:00:00 14.6 10 Oeste 13 Oeste 0 -- -- 90
2019-09-11 05:00:00 14.8 6 Sudoeste 12 Oeste 0 -- -- 89
2019-09-11 04:00:00 14.8 6 Noroeste 11 Noroeste 0 -- -- 89
2019-09-11 03:00:00 -- -- -- -- -- -- -- -- --
2019-09-11 02:00:00 -- -- -- -- -- -- -- -- --
2019-09-11 01:00:00 -- -- -- -- -- -- -- -- --
2019-09-11 00:00:00 -- -- -- -- -- -- -- -- --
2019-09-10 23:00:00 16.6 -- -- -- -- -- -- -- --
2019-09-10 22:00:00 16.8 19 Norte 32 Norte 0 -- -- 80
2019-09-10 21:00:00 16.8 -- -- -- -- 0 -- -- 79
2019-09-10 20:00:00 16.9 19 Norte 35 Norte 0 -- -- 77
2019-09-10 19:00:00 17 -- -- -- -- 0 -- -- --
2019-09-10 18:00:00 17 21 Norte 41 Norte 0 -- -- 75
2019-09-10 17:00:00 16.8 24 Norte 48 Norte 0 -- -- 72
2019-09-10 16:00:00 17.4 32 Norte 49 Norte 0 -- -- 78
2019-09-10 15:00:00 16.8 33 Norte 52 Norte 0 -- -- 81
2019-09-10 14:00:00 17.2 40 Norte 61 Norte 0 -- -- 80
2019-09-10 13:00:00 17.1 41 Norte 61 Norte 0.2 -- -- 91
2019-09-10 12:00:00 14.3 20 Noroeste 37 Norte 1.2 -- -- 98
2019-09-10 11:00:00 13.5 22 Noroeste 49 Norte 14.4 -- -- 99
2019-09-10 10:00:00 13.2 19 Oeste 46 Noroeste 0.2 -- -- 93
2019-09-10 09:00:00 13.9 24 Noroeste 47 Noroeste 4.8 -- -- 93
2019-09-10 08:00:00 12.3 15 Oeste 53 Noroeste 2.2 -- -- 93
2019-09-10 07:00:00 13.1 26 Noroeste 44 Noroeste 6 -- -- 92
2019-09-10 06:00:00 12.3 15 Oeste 38 Oeste 0.4 -- -- 91
2019-09-10 05:00:00 12.5 21 Oeste 38 Oeste 0.4 -- -- 92
2019-09-10 04:00:00 12.4 -- -- -- -- -- -- -- --
2019-09-10 03:00:00 13.4 14 Oeste 28 Oeste 0.2 -- -- 92
2019-09-10 02:00:00 13.5 12 Oeste 34 Oeste 0.4 -- -- 94
2019-09-10 01:00:00 13.9 19 Oeste 52 Noroeste 2.6 -- -- 95
2019-09-10 00:00:00 14.3 -- -- -- -- 3.8 -- -- --
2019-09-09 23:00:00 14.5 24 Noroeste 71 Noroeste 3.4 -- -- 94
2019-09-09 22:00:00 17.1 29 Noroeste 49 Noroeste 0 -- -- 80
2019-09-09 21:00:00 17 17 Oeste 30 Oeste 0 -- -- 80
2019-09-09 20:00:00 17.4 18 Noroeste 33 Noroeste 0 -- -- 78
2019-09-09 19:00:00 18.1 15 Noroeste 30 Oeste 0 -- -- 78
2019-09-09 18:00:00 18.6 18 Noroeste 28 Noroeste 0 -- -- 75
2019-09-09 17:00:00 18.7 16 Oeste 30 Oeste 0 -- -- 72
2019-09-09 16:00:00 19.2 14 Noroeste 26 Oeste 0 -- -- 66
2019-09-09 15:00:00 19.9 14 Noroeste 22 Noroeste 0 -- -- 64
2019-09-09 14:00:00 20.4 9 Norte 15 Noroeste 0 -- -- 67
2019-09-09 13:00:00 21.6 4 Noroeste 10 Sudoeste 0 -- -- 63
2019-09-09 12:00:00 19.4 3 Sudoeste 8 Sur 0 -- -- 71
2019-09-09 11:00:00 16.2 4 Sur 9 Sudoeste 0 -- -- 83
2019-09-09 10:00:00 14.1 4 Sur 12 Sudeste 0 -- -- 88
2019-09-09 09:00:00 12.6 10 Sur 23 Sudeste 0 -- -- 91
2019-09-09 08:00:00 11.8 15 Sudeste 20 Sudeste 0 -- -- 94
2019-09-09 07:00:00 11.9 10 Sur 14 Sudeste 0 -- -- 94
2019-09-09 06:00:00 11.6 8 Sur 12 Sur 0 -- -- 94
2019-09-09 05:00:00 11.7 11 Sur 22 Sudeste 0 -- -- 93
2019-09-09 04:00:00 12.2 12 Sudeste 18 Sudeste 0 -- -- 93
2019-09-09 03:00:00 12.5 8 Sur 13 Sudeste 0 -- -- 92
2019-09-09 02:00:00 12.9 8 Sur 15 Sudeste 0 -- -- 91
2019-09-09 01:00:00 13.5 -- -- -- -- -- -- -- --
2019-09-09 00:00:00 14.5 6 Sudoeste 8 Sudoeste 0 -- -- 85
2019-09-08 23:00:00 15.6 3 Sur 5 Sur 0 -- -- 79
2019-09-08 22:00:00 16.4 2 Oeste 17 Este 0 -- -- 74
2019-09-08 21:00:00 16.9 -- -- -- -- 0 -- -- 74
2019-09-08 20:00:00 18.4 15 Este 23 Este 0 -- -- 70
2019-09-08 19:00:00 19.6 18 Nordeste 30 Nordeste 0 -- -- 65
2019-09-08 18:00:00 20.2 21 Nordeste 27 Nordeste 0 -- -- 66
2019-09-08 17:00:00 20.6 17 Nordeste 28 Nordeste 0 -- -- 66
2019-09-08 16:00:00 21.2 16 Nordeste 23 Nordeste 0 -- -- 69
2019-09-08 15:00:00 20.9 13 Nordeste 22 Nordeste 0 -- -- 68
2019-09-08 14:00:00 20.9 12 Nordeste 19 Este 0 -- -- 71
2019-09-08 13:00:00 19.6 10 Nordeste 16 Norte 0 -- -- 77
2019-09-08 12:00:00 19.4 3 Nordeste 9 Sudeste 0 -- -- 76
2019-09-08 11:00:00 18.4 5 Sudeste 9 Sudeste 0 -- -- 84
2019-09-08 10:00:00 18.1 5 Sur 17 Sudoeste 0 -- -- 87
2019-09-08 09:00:00 15.1 12 Sudoeste 18 Sudoeste 0.4 -- -- 95
2019-09-08 08:00:00 14.1 7 Sur 9 Sur 0 -- -- 92
2019-09-08 07:00:00 14.3 0 Calma 8 Sur 0 -- -- 89
2019-09-08 06:00:00 14.2 7 Sudeste 13 Sudoeste 0 -- -- 90
2019-09-08 05:00:00 14.4 9 Sudoeste 13 Sudoeste 0 -- -- 91
2019-09-08 04:00:00 14.5 8 Sudoeste 10 Sudoeste 0 -- -- 90
2019-09-08 03:00:00 14.2 6 Sur 12 Sudeste 0 -- -- 89
2019-09-08 02:00:00 13.7 10 Sur 14 Sur 0 -- -- 92
2019-09-08 01:00:00 13.9 10 Sur 17 Sudoeste 0 -- -- 90
2019-09-08 00:00:00 14.5 10 Sudoeste 14 Sudoeste 0 -- -- 88
2019-09-07 23:00:00 15.2 8 Sudoeste 10 Sudoeste 0 -- -- 85
2019-09-07 22:00:00 16.3 7 Sur 8 Sur 0 -- -- 81
2019-09-07 21:00:00 17.1 3 Norte 9 Nordeste 0 -- -- 77
2019-09-07 20:00:00 18.2 6 Norte 15 Norte 0 -- -- 74
2019-09-07 19:00:00 19.2 8 Norte 18 Norte 0 -- -- 71
2019-09-07 18:00:00 19.8 13 Norte 19 Nordeste 0 -- -- 68
2019-09-07 17:00:00 20.3 12 Nordeste 22 Nordeste 0 -- -- 65
2019-09-07 16:00:00 20.4 13 Nordeste 24 Nordeste 0 -- -- 67
2019-09-07 15:00:00 20.6 13 Nordeste 21 Nordeste 0 -- -- 67
2019-09-07 14:00:00 19.4 12 Norte 21 Nordeste 0 -- -- 69
2019-09-07 13:00:00 21.2 6 Nordeste 15 Sudeste 0 -- -- 61
2019-09-07 12:00:00 19.6 5 Sudoeste 11 Oeste 0 -- -- 62
2019-09-07 11:00:00 17.5 5 Oeste 12 Sudeste 0 -- -- 73
2019-09-07 10:00:00 15.3 7 Sudoeste 14 Sudoeste 0 -- -- 84
2019-09-07 09:00:00 13.5 6 Sur 14 Sudoeste 0 -- -- 92
2019-09-07 08:00:00 11.6 10 Sudoeste 15 Sudoeste 0 -- -- 95
2019-09-07 07:00:00 11.1 8 Sur 13 Sur 0 -- -- 94
2019-09-07 06:00:00 11.3 9 Sur 17 Sudeste 0 -- -- 94
2019-09-07 05:00:00 11.6 9 Sur 15 Sur 0 -- -- 93
2019-09-07 04:00:00 12 6 Sur 17 Sudoeste 0 -- -- 93
2019-09-07 03:00:00 12.7 10 Sudoeste 14 Sudoeste 0 -- -- 91
2019-09-07 02:00:00 13 9 Sudoeste 14 Sudoeste 0 -- -- 90
2019-09-07 01:00:00 13.3 11 Sudoeste 14 Oeste 0 -- -- 88
2019-09-07 00:00:00 13.9 7 Sudoeste 14 Oeste 0 -- -- 86
2019-09-06 23:00:00 14.8 9 Sudoeste 11 Sudoeste 0 -- -- 81
2019-09-06 22:00:00 15.8 8 Este 14 Nordeste 0 -- -- 76
2019-09-06 21:00:00 15.9 9 Nordeste 17 Nordeste 0 -- -- 75
2019-09-06 20:00:00 17.7 14 Nordeste 24 Nordeste 0 -- -- 66
2019-09-06 19:00:00 18.6 19 Nordeste 27 Nordeste 0 -- -- 63
2019-09-06 18:00:00 19.5 18 Nordeste 27 Nordeste 0 -- -- 59
2019-09-06 17:00:00 19.6 23 Nordeste 32 Este 0 -- -- 61
2019-09-06 16:00:00 19 18 Nordeste 28 Nordeste 0 -- -- 71
2019-09-06 15:00:00 19.6 15 Nordeste 23 Nordeste 0 -- -- 69
2019-09-06 14:00:00 20 5 Noroeste 15 Noroeste 0 -- -- 73
2019-09-06 13:00:00 18.3 11 Norte 18 Norte 0 -- -- 76
2019-09-06 12:00:00 18.1 4 Norte 12 Sudoeste 0 -- -- 78
2019-09-06 11:00:00 18.1 8 Sudoeste 15 Sudoeste 0 -- -- 79
2019-09-06 10:00:00 14.7 8 Sudoeste 13 Sur 0 -- -- 91
2019-09-06 09:00:00 13.7 8 Sur 11 Sur 0 -- -- 94
2019-09-06 08:00:00 13 11 Sudoeste 17 Sudoeste 0 -- -- 96
2019-09-06 07:00:00 13.6 8 Sudoeste 13 Oeste 0 -- -- 96
2019-09-06 06:00:00 13.9 10 Sudoeste 13 Sudoeste 0 -- -- 95
2019-09-06 05:00:00 14.1 8 Sudoeste 10 Sudoeste 0 -- -- 95
2019-09-06 04:00:00 14.3 6 Oeste 13 Sudoeste 0 -- -- 95
2019-09-06 03:00:00 14.4 8 Sudoeste 10 Sudoeste 0 -- -- 94
2019-09-06 02:00:00 14.8 7 Sudoeste 13 Sudoeste 0 -- -- 93
2019-09-06 01:00:00 15.2 10 Oeste 14 Oeste 0 -- -- 93
2019-09-06 00:00:00 15.4 10 Sudoeste 14 Sudoeste 0 -- -- 91
2019-09-05 23:00:00 15.7 8 Sudoeste 13 Sudoeste 0 -- -- 89
2019-09-05 22:00:00 16.4 5 Oeste 12 Este 0 -- -- 81
2019-09-05 21:00:00 16.7 11 Este 19 Este 0 -- -- 77
2019-09-05 20:00:00 17 12 Nordeste 20 Nordeste 0.2 -- -- 80
2019-09-05 19:00:00 18.1 15 Nordeste 26 Nordeste 0 -- -- 74
2019-09-05 18:00:00 17.9 13 Nordeste 23 Norte 0 -- -- 78
2019-09-05 17:00:00 18.5 15 Nordeste 36 Nordeste 0 -- -- 77
2019-09-05 16:00:00 18.2 15 Norte 30 Noroeste 0.4 -- -- 85
2019-09-05 15:00:00 19.3 13 Norte 26 Norte 0 -- -- 76
2019-09-05 14:00:00 19.8 8 Norte 31 Noroeste 0.4 -- -- 77
2019-09-05 13:00:00 18.4 20 Noroeste 28 Noroeste 0 -- -- 77
2019-09-05 12:00:00 18.4 12 Noroeste 19 Oeste 0 -- -- 77
2019-09-05 11:00:00 18.5 13 Oeste 20 Oeste 0 -- -- 79
2019-09-05 10:00:00 17.4 9 Oeste 14 Oeste 0 -- -- 86
2019-09-05 09:00:00 15.7 10 Sudoeste 18 Oeste 0 -- -- 94
2019-09-05 08:00:00 15.1 9 Sudoeste 14 Sudoeste 0 -- -- 95
2019-09-05 07:00:00 15.1 10 Sudoeste 13 Oeste 0 -- -- 96
2019-09-05 06:00:00 15 7 Oeste 21 Noroeste 0.4 -- -- 95
2019-09-05 05:00:00 15.5 15 Oeste 26 Oeste 0 -- -- 94
2019-09-05 04:00:00 15.4 8 Oeste 20 Oeste 0 -- -- 97
2019-09-05 03:00:00 15.4 9 Noroeste 26 Oeste 0.4 -- -- 97
2019-09-05 02:00:00 15.5 14 Noroeste 29 Oeste 2.4 -- -- 96
2019-09-05 01:00:00 15.5 15 Oeste 35 Oeste 0.8 -- -- 94
2019-09-05 00:00:00 17.7 13 Oeste 23 Noroeste 0 -- -- 86
2019-09-04 23:00:00 17.5 7 Oeste 15 Oeste 0 -- -- 85
2019-09-04 22:00:00 18.3 10 Oeste 15 Noroeste 0 -- -- 80
2019-09-04 21:00:00 18.5 10 Noroeste 17 Noroeste 0 -- -- 80
2019-09-04 20:00:00 19.4 13 Noroeste 22 Noroeste 0 -- -- 75
2019-09-04 19:00:00 19.8 14 Noroeste 26 Norte 0 -- -- 77
2019-09-04 18:00:00 20.2 15 Norte 26 Norte 0 -- -- 77
2019-09-04 17:00:00 21.5 18 Norte 29 Norte 0 -- -- 75
2019-09-04 16:00:00 21.1 18 Norte 27 Norte 0 -- -- 79
2019-09-04 15:00:00 22.5 16 Noroeste 28 Noroeste 0 -- -- 72
2019-09-04 14:00:00 22.6 14 Noroeste 20 Noroeste 0 -- -- 70
2019-09-04 13:00:00 22.2 9 Norte 17 Norte 0 -- -- 70
2019-09-04 12:00:00 22.3 5 Noroeste 10 Noroeste 0 -- -- 68
2019-09-04 11:00:00 20 5 Sudoeste 11 Sudoeste 0 -- -- 73
2019-09-04 10:00:00 17 7 Sudoeste 14 Sudoeste 0 -- -- 82
2019-09-04 09:00:00 14.5 8 Sudoeste 13 Sudoeste 0 -- -- 88
2019-09-04 08:00:00 12.4 10 Sudoeste 19 Sudoeste 0 -- -- 93
2019-09-04 07:00:00 12.5 7 Sur 14 Sur 0 -- -- 93
2019-09-04 06:00:00 12.8 6 Sur 10 Sudoeste 0 -- -- 93
2019-09-04 05:00:00 13 9 Sur 16 Sudeste 0 -- -- 92
2019-09-04 04:00:00 13.6 7 Sur 12 Sur 0 -- -- 91
2019-09-04 03:00:00 14 9 Sur 15 Sudeste 0 -- -- 91
2019-09-04 02:00:00 14.3 13 Sudeste 18 Sudeste 0 -- -- 89
2019-09-04 01:00:00 14.9 9 Sur 13 Sur 0 -- -- 86
2019-09-04 00:00:00 15.5 11 Sudoeste 14 Sudoeste 0 -- -- 83
2019-09-03 23:00:00 17.2 6 Sudoeste 10 Sudoeste 0 -- -- 73
2019-09-03 22:00:00 18.1 4 Este 11 Nordeste 0 -- -- 66
2019-09-03 21:00:00 18.9 9 Este 16 Este 0 -- -- 63
2019-09-03 20:00:00 21 7 Este 21 Nordeste 0 -- -- 61
2019-09-03 19:00:00 21.9 19 Este 30 Este 0 -- -- 59
2019-09-03 18:00:00 22.6 17 Nordeste 36 Nordeste 0 -- -- 59
2019-09-03 17:00:00 22.9 23 Este 35 Este 0 -- -- 59
2019-09-03 16:00:00 23.3 26 Nordeste 36 Nordeste 0 -- -- 56
2019-09-03 15:00:00 23.8 22 Nordeste 40 Este 0 -- -- 54
2019-09-03 14:00:00 23.8 21 Este 37 Este 0 -- -- 58
2019-09-03 13:00:00 23.5 12 Nordeste 21 Este 0 -- -- 64
2019-09-03 12:00:00 21.9 13 Este 19 Sudeste 0 -- -- 69
2019-09-03 11:00:00 19.1 12 Sudeste 19 Sudeste 0 -- -- 71
2019-09-03 10:00:00 16.4 14 Sudeste 25 Sudeste 0 -- -- 78
2019-09-03 09:00:00 14.1 15 Sudeste 25 Sudeste 0 -- -- 84
2019-09-03 08:00:00 12.3 17 Sudeste 26 Sudeste 0 -- -- 89
2019-09-03 07:00:00 12 15 Sur 27 Sudeste 0 -- -- 90
2019-09-03 06:00:00 12.3 18 Sudeste 27 Sudeste 0 -- -- 91
2019-09-03 05:00:00 12.5 19 Sudeste 27 Sudeste 0 -- -- 92
2019-09-03 04:00:00 12.9 17 Sudeste 25 Sudeste 0 -- -- 92
2019-09-03 03:00:00 13.2 10 Sur 18 Sudeste 0 -- -- 93
2019-09-03 02:00:00 13.7 9 Sur 17 Sudeste 0 -- -- 92
2019-09-03 01:00:00 14.3 10 Sur 18 Sudeste 0 -- -- 92
2019-09-03 00:00:00 15 10 Sudeste 16 Sur 0 -- -- 90
2019-09-02 23:00:00 16 6 Sur 10 Sudeste 0 -- -- 86
2019-09-02 22:00:00 16.8 9 Sudeste 18 Este 0 -- -- 83
2019-09-02 21:00:00 17.5 13 Este 24 Nordeste -- -- -- 78
2019-09-02 20:00:00 19 18 Este 26 Este 0 -- -- 73
2019-09-02 19:00:00 20.2 18 Este 24 Nordeste 0 -- -- 70
2019-09-02 18:00:00 20.8 17 Nordeste 25 Nordeste 0 -- -- 70
2019-09-02 17:00:00 20.6 10 Nordeste 22 Norte 0 -- -- 73
2019-09-02 16:00:00 21.4 10 Norte 18 Nordeste 0 -- -- 70
2019-09-02 15:00:00 20 12 Nordeste 17 Nordeste 0 -- -- 72
2019-09-02 14:00:00 20 8 Nordeste 15 Nordeste 0 -- -- 76
2019-09-02 13:00:00 19.9 6 Nordeste 12 Nordeste 0 -- -- 67
2019-09-02 12:00:00 21.3 5 Noroeste 9 Norte 0 -- -- 69
2019-09-02 11:00:00 20.1 4 Sudoeste 11 Oeste 0 -- -- 74
2019-09-02 10:00:00 18.3 4 Sudoeste 13 Sudoeste 0 -- -- 88
2019-09-02 09:00:00 16.5 10 Sudoeste 13 Sudoeste 0 -- -- 96
2019-09-02 08:00:00 14.9 9 Sudoeste 12 Sudoeste 0 -- -- 99
2019-09-02 07:00:00 14.8 9 Sudoeste 13 Sudoeste 0 -- -- 99
2019-09-02 06:00:00 14.8 8 Sudoeste 13 Oeste 0 -- -- 99
2019-09-02 05:00:00 14.9 8 Sudoeste 11 Sudoeste 0 -- -- 99
2019-09-02 04:00:00 14.9 7 Sudoeste 11 Sudoeste 0 -- -- 99
2019-09-02 03:00:00 15 7 Sudoeste 11 Sudoeste 0 -- -- 99
2019-09-02 02:00:00 15 8 Sudoeste 11 Sudoeste 0 -- -- 99
2019-09-02 01:00:00 15.1 6 Oeste 15 Sudoeste 0 -- -- 99
2019-09-02 00:00:00 15.2 11 Sudoeste 15 Sudoeste 0.4 -- -- 99
2019-09-01 23:00:00 15.3 2 Sudoeste 10 Sudoeste 0 -- -- 99
2019-09-01 22:00:00 15.2 9 Sudoeste 13 Sudoeste 0 -- -- 99
2019-09-01 21:00:00 15.4 7 Sudoeste 10 Oeste 0.4 -- -- 100
2019-09-01 20:00:00 15.6 6 Noroeste 25 Nordeste 0.6 -- -- 100
2019-09-01 19:00:00 16.1 18 Nordeste 32 Nordeste 1 -- -- 99
2019-09-01 18:00:00 16.4 17 Nordeste 32 Nordeste 0.8 -- -- 99
2019-09-01 17:00:00 17.1 23 Nordeste 34 Nordeste 0.2 -- -- 99
2019-09-01 16:00:00 17.4 24 Nordeste 38 Nordeste 1.4 -- -- 99
2019-09-01 15:00:00 17.9 19 Nordeste 36 Nordeste 3.6 -- -- 98
2019-09-01 14:00:00 19.5 16 Noroeste 22 Oeste 0.6 -- -- 90
2019-09-01 13:00:00 19.8 10 Sudoeste 15 Sudoeste 0 -- -- 94
2019-09-01 12:00:00 18.5 4 Sudoeste 11 Sudeste 0.6 -- -- 98
2019-09-01 11:00:00 18.2 5 Sur 10 Sur 0.4 -- -- 98
2019-09-01 10:00:00 17.8 6 Sudoeste 13 Sudoeste 0.8 -- -- 97
2019-09-01 09:00:00 17.7 8 Sudoeste 14 Oeste 0 -- -- 97
2019-09-01 08:00:00 17.4 9 Sudoeste 16 Sudoeste 0 -- -- 97
2019-09-01 07:00:00 17.3 10 Sudoeste 19 Sudoeste 0 -- -- 98
2019-09-01 06:00:00 17.6 12 Sudoeste 15 Sudoeste 0.2 -- -- 98
2019-09-01 05:00:00 17.9 9 Sudoeste 12 Oeste 0 -- -- 97
2019-09-01 04:00:00 18.8 8 Oeste 10 Oeste 0 -- -- 97
2019-09-01 03:00:00 19 5 Oeste 7 Oeste 0 -- -- 97
2019-09-01 02:00:00 18.9 3 Nordeste 10 Sudoeste 0 -- -- 97
2019-09-01 01:00:00 19 7 Sudoeste 10 Sudoeste 0 -- -- 96
2019-09-01 00:00:00 19.1 7 Sudoeste 8 Noroeste 0.6 -- -- 95
2019-08-31 23:00:00 19.7 5 Noroeste 9 Oeste 0 -- -- 91
2019-08-31 22:00:00 19.9 6 Noroeste 9 Noroeste 0 -- -- 89
2019-08-31 21:00:00 20.1 6 Noroeste 9 Norte 0 -- -- 88
2019-08-31 20:00:00 20.4 0 Calma 8 Noroeste 0 -- -- 87
2019-08-31 19:00:00 20.8 4 Norte 13 Norte 0 -- -- 89
2019-08-31 18:00:00 21.6 3 Nordeste 8 Norte 0 -- -- 86
2019-08-31 17:00:00 21.6 2 Norte 10 Nordeste 0 -- -- 89
2019-08-31 16:00:00 20.3 8 Nordeste 15 Norte 0 -- -- 95
2019-08-31 15:00:00 20.2 11 Norte 17 Nordeste 0 -- -- 96
2019-08-31 14:00:00 20.2 6 Norte 17 Noroeste 0 -- -- 95
2019-08-31 13:00:00 20.7 13 Noroeste 21 Noroeste 0 -- -- 92
2019-08-31 12:00:00 20.2 6 Noroeste 16 Noroeste 0 -- -- 93
2019-08-31 11:00:00 20.6 7 Noroeste 12 Noroeste 0 -- -- 90
2019-08-31 10:00:00 20.3 6 Oeste 10 Oeste 0 -- -- 92
2019-08-31 09:00:00 19.9 7 Oeste 13 Oeste 0 -- -- 92
2019-08-31 08:00:00 19.6 11 Oeste 14 Oeste 0 -- -- 93
2019-08-31 07:00:00 20 2 Noroeste 3 Noroeste 0 -- -- 95
2019-08-31 06:00:00 20 2 Sur 4 Sur 0 -- -- 95
2019-08-31 05:00:00 20 2 Sudoeste 4 Norte 0 -- -- 94
2019-08-31 04:00:00 20.1 2 Norte 4 Noroeste 0 -- -- 94
2019-08-31 03:00:00 20.2 2 Noroeste 5 Sudeste 0 -- -- 93
2019-08-31 02:00:00 20.2 4 Sudeste 5 Sur 0 -- -- 93
2019-08-31 01:00:00 20.2 0 Calma 6 Este 0 -- -- 93
2019-08-31 00:00:00 20.2 4 Este 8 Nordeste 0 -- -- 92
2019-08-30 23:00:00 20.3 6 Nordeste 9 Nordeste 0 -- -- 92
2019-08-30 22:00:00 20.7 4 Nordeste 7 Nordeste 0 -- -- 91
2019-08-30 21:00:00 21 4 Nordeste 7 Nordeste 0 -- -- 90
2019-08-30 20:00:00 21.5 6 Nordeste 12 Nordeste 0 -- -- 88
2019-08-30 19:00:00 21.7 8 Nordeste 15 Nordeste 0 -- -- 88
2019-08-30 18:00:00 21.8 14 Nordeste 26 Nordeste 0 -- -- 87
2019-08-30 17:00:00 22.5 17 Nordeste 26 Nordeste 0 -- -- 84
2019-08-30 16:00:00 23.3 19 Nordeste 30 Nordeste 0 -- -- 82
2019-08-30 15:00:00 24.2 18 Nordeste 23 Nordeste 0 -- -- 79
2019-08-30 14:00:00 24.6 19 Nordeste 26 Nordeste 0 -- -- 78
2019-08-30 13:00:00 26.1 11 Nordeste 19 Nordeste 0 -- -- 70
2019-08-30 12:00:00 24.9 8 Nordeste 18 Este 0 -- -- 76
2019-08-30 11:00:00 23.9 12 Este 19 Este 0 -- -- 77
2019-08-30 10:00:00 22.4 6 Este 12 Este 0 -- -- 84
2019-08-30 09:00:00 20.3 8 Sudeste 10 Sudeste 0 -- -- 92
2019-08-30 08:00:00 18.9 9 Sudeste 11 Sudeste 0 -- -- 93
2019-08-30 07:00:00 19.1 8 Sudeste 11 Este 0 -- -- 92
2019-08-30 06:00:00 19.1 4 Sur 9 Sudeste 0 -- -- 92
2019-08-30 05:00:00 19.3 0 Calma 9 Sudeste 0 -- -- 92
2019-08-30 04:00:00 19.4 8 Este 11 Este 0 -- -- 91
2019-08-30 03:00:00 19.8 3 Sur 5 Sur 0 -- -- 89
2019-08-30 02:00:00 20 2 Sudeste 7 Sudeste 0 -- -- 88
2019-08-30 01:00:00 20.2 6 Sudeste 12 Este 0 -- -- 87
2019-08-30 00:00:00 20.1 6 Este 9 Este 0 -- -- 87
2019-08-29 23:00:00 20.5 4 Este 10 Este 0 -- -- 84
2019-08-29 22:00:00 20.5 3 Este 9 Este 0 -- -- 84
2019-08-29 21:00:00 20.8 4 Nordeste 10 Este 0 -- -- 83
2019-08-29 20:00:00 21.2 8 Este 19 Este 0 -- -- 81
2019-08-29 19:00:00 21.7 10 Este 15 Este 0 -- -- 80
2019-08-29 18:00:00 21.8 8 Nordeste 21 Este 0 -- -- 82
2019-08-29 17:00:00 22.3 16 Nordeste 25 Nordeste 0 -- -- 80
2019-08-29 16:00:00 23.8 6 Este 18 Oeste 0 -- -- 81
2019-08-29 15:00:00 24.2 10 Noroeste 15 Noroeste 0 -- -- 78
2019-08-29 14:00:00 23.1 10 Noroeste 15 Noroeste 0 -- -- 84
2019-08-29 13:00:00 22.9 7 Norte 14 Noroeste 0 -- -- 86
2019-08-29 12:00:00 22.5 10 Noroeste 15 Noroeste 0 -- -- 86
2019-08-29 11:00:00 22.5 2 Norte 8 Norte 0 -- -- 87
2019-08-29 10:00:00 21.5 3 Sudeste 6 Este 0 -- -- 94
2019-08-29 09:00:00 19.8 2 Sur 7 Sur 0 -- -- 98
2019-08-29 08:00:00 19.4 6 Sudeste 9 Sur 0 -- -- 98
2019-08-29 07:00:00 19.4 2 Sudeste 6 Sur 0 -- -- 98
2019-08-29 06:00:00 19.6 4 Sur 6 Sur 0 -- -- 97
2019-08-29 05:00:00 19.7 2 Sur 4 Sudeste 0 -- -- 97
2019-08-29 04:00:00 19.8 2 Sudeste 4 Sudoeste 0 -- -- 97
2019-08-29 03:00:00 19.5 2 Sudoeste 3 Sudoeste 0 -- -- 96
2019-08-29 02:00:00 19.6 0 Calma 4 Norte 0 -- -- 96
2019-08-29 01:00:00 19.8 2 Noroeste 9 Sudoeste 0 -- -- 96
2019-08-29 00:00:00 20 6 Sudoeste 13 Sudoeste 0 -- -- 95
2019-08-28 23:00:00 20.3 4 Sudoeste 12 Oeste -- -- -- 94
2019-08-28 22:00:00 20.5 9 Noroeste 13 Noroeste 0 -- -- 94
2019-08-28 21:00:00 21.2 5 Noroeste 6 Noroeste 0 -- -- 92
2019-08-28 20:00:00 21.5 4 Norte 12 Sudeste 0 -- -- 91
2019-08-28 19:00:00 22.1 7 Sudeste 12 Sudeste 0 -- -- 87
2019-08-28 18:00:00 22.4 7 Este 13 Nordeste 0 -- -- 86
2019-08-28 17:00:00 22.2 10 Nordeste 15 Este 0 -- -- 88
2019-08-28 16:00:00 22.6 10 Norte 17 Nordeste 0 -- -- 86
2019-08-28 15:00:00 22.8 13 Nordeste 19 Nordeste 0 -- -- 86
2019-08-28 14:00:00 23.2 12 Nordeste 18 Nordeste 0 -- -- 84
2019-08-28 13:00:00 24.2 4 Nordeste 11 Sudeste 0 -- -- 77
2019-08-28 12:00:00 24.2 6 Nordeste 12 Nordeste 0 -- -- 77
2019-08-28 11:00:00 23.2 3 Noroeste 9 Sur 0 -- -- 79
2019-08-28 10:00:00 21.2 5 Sur 8 Sur 0 -- -- 89
2019-08-28 09:00:00 19.3 5 Sudeste 10 Sudeste 0 -- -- 97
2019-08-28 08:00:00 18.4 6 Sur 10 Sudeste 0 -- -- 97
2019-08-28 07:00:00 18.9 6 Sudoeste 8 Sur 0 -- -- 96
2019-08-28 06:00:00 19.2 5 Oeste 7 Sudoeste 0 -- -- 96
2019-08-28 05:00:00 19.3 2 Oeste -- -- 0 -- -- 96
2019-08-28 04:00:00 19.2 0 Calma 6 Este 0 -- -- 95
2019-08-28 03:00:00 19.5 4 Nordeste 5 Nordeste 0 -- -- 94
2019-08-28 02:00:00 19.9 3 Sudeste 6 Sur 0 -- -- 93
2019-08-28 01:00:00 20.1 3 Sudeste 5 Sudeste 0 -- -- 92
2019-08-28 00:00:00 20.2 4 Este 9 Este 0 -- -- 91
2019-08-27 23:00:00 20.2 5 Este 7 Nordeste 0 -- -- 92
2019-08-27 22:00:00 20.3 4 Este 6 Nordeste 0 -- -- 91
2019-08-27 21:00:00 20.5 4 Nordeste 9 Norte 0 -- -- 89
2019-08-27 20:00:00 20.7 9 Norte 15 Norte 0 -- -- 89
2019-08-27 19:00:00 21.4 10 Norte 15 Norte 0 -- -- 87
2019-08-27 18:00:00 21.7 11 Nordeste 22 Nordeste 0 -- -- 85
2019-08-27 17:00:00 22.2 14 Norte 21 Norte 0 -- -- 85
2019-08-27 16:00:00 22.4 14 Norte 21 Nordeste 0 -- -- 86
2019-08-27 15:00:00 23.4 13 Norte 21 Noroeste 0 -- -- 82
2019-08-27 14:00:00 23 12 Norte 20 Noroeste 0 -- -- 85
2019-08-27 13:00:00 25.6 7 Norte 12 Nordeste 0 -- -- 73
2019-08-27 12:00:00 24.9 5 Sudeste 18 Este 0 -- -- 75
2019-08-27 11:00:00 22.6 3 Oeste 9 Sudeste 0 -- -- 78
2019-08-27 10:00:00 20.4 4 Sur 13 Sur 0 -- -- 86
2019-08-27 09:00:00 17.4 8 Sur 11 Sudeste 0 -- -- 94
2019-08-27 08:00:00 16.5 8 Sur 19 Sudeste 0 -- -- 95
2019-08-27 07:00:00 16.7 8 Sur 18 Sudeste 0 -- -- 96
2019-08-27 06:00:00 16.7 9 Sur 20 Sudeste 0 -- -- 96
2019-08-27 05:00:00 17 14 Sudeste 21 Sudeste 0 -- -- 97
2019-08-27 04:00:00 17 9 Sudoeste 14 Sudoeste 0 -- -- 97
2019-08-27 03:00:00 17.2 10 Sudoeste 15 Oeste 0 -- -- 96
2019-08-27 02:00:00 17.6 6 Sudoeste 15 Sudoeste 0 -- -- 96
2019-08-27 01:00:00 18.1 8 Sudoeste 15 Sudoeste 0 -- -- 96
2019-08-27 00:00:00 18.5 6 Oeste 13 Sudeste 0 -- -- 94
2019-08-26 23:00:00 19 5 Sur 31 Sudeste 0 -- -- 96
2019-08-26 22:00:00 19.3 19 Sudeste 26 Sudeste 0 -- -- 95
2019-08-26 21:00:00 20.3 0 Calma 15 Noroeste 0 -- -- 94
2019-08-26 20:00:00 20.7 4 Sudoeste 19 Oeste 0.2 -- -- 95
2019-08-26 19:00:00 20.2 14 Noroeste 23 Noroeste 0.8 -- -- 95
2019-08-26 18:00:00 20.6 8 Norte 21 Noroeste 6 -- -- 90
2019-08-26 17:00:00 23.6 12 Noroeste 20 Norte 0 -- -- 76
2019-08-26 16:00:00 24 15 Norte 20 Norte 0 -- -- 81
2019-08-26 15:00:00 25.1 7 Nordeste 18 Nordeste 0 -- -- 78
2019-08-26 14:00:00 23.9 10 Oeste 19 Noroeste 0 -- -- 75
2019-08-26 13:00:00 22.4 9 Noroeste 15 Noroeste 0 -- -- 81
2019-08-26 12:00:00 22.1 5 Noroeste 12 Oeste 0 -- -- 88
2019-08-26 11:00:00 19.2 5 Oeste 11 Sudoeste 0 -- -- 94
2019-08-26 10:00:00 18.4 8 Sudoeste 14 Sudoeste 0 -- -- 97
2019-08-26 09:00:00 17.3 10 Sudoeste 14 Sudoeste 0 -- -- 98
2019-08-26 08:00:00 16.5 8 Sudoeste 12 Sudoeste 0 -- -- 98
2019-08-26 07:00:00 16.5 5 Sudeste 19 Sudeste 0 -- -- 98
2019-08-26 06:00:00 16.9 11 Sudeste 15 Sudeste 0 -- -- 98
2019-08-26 05:00:00 17.2 7 Sur 10 Sudeste 0 -- -- 97
2019-08-26 04:00:00 17.6 6 Sur 7 Sur 0.4 -- -- 97
2019-08-26 03:00:00 17.8 4 Sur 16 Sudeste 0 -- -- 97
2019-08-26 02:00:00 18 10 Sudeste 15 Sudeste 0 -- -- 96
2019-08-26 01:00:00 18.1 11 Sudeste 14 Sudeste 0 -- -- 96
2019-08-26 00:00:00 18.2 7 Sur 12 Sudeste 0 -- -- 96
2019-08-25 23:00:00 18.4 13 Sudeste 25 Sudeste 0.8 -- -- 95
2019-08-25 22:00:00 18.4 9 Sudeste 20 Sur 0.6 -- -- 95
2019-08-25 21:00:00 18.4 6 Nordeste 14 Este 1.2 -- -- 93
2019-08-25 20:00:00 19 10 Nordeste 19 Sudoeste 0 -- -- 89
2019-08-25 19:00:00 19.8 4 Norte 17 Norte 0 -- -- 85
2019-08-25 18:00:00 20.1 10 Norte 17 Norte 0 -- -- 85
2019-08-25 17:00:00 20.3 12 Norte 17 Norte 0 -- -- 85
2019-08-25 16:00:00 21.3 6 Norte 12 Este 0 -- -- 82
2019-08-25 15:00:00 20.4 8 Nordeste 14 Nordeste 0 -- -- 85
2019-08-25 14:00:00 20.6 9 Nordeste 13 Nordeste 0 -- -- 84
2019-08-25 13:00:00 20.8 8 Este 14 Este 0 -- -- 83
2019-08-25 12:00:00 20.5 5 Nordeste 8 Sudeste 0 -- -- 83
2019-08-25 11:00:00 20.4 4 Sudoeste 9 Oeste 0 -- -- 82
2019-08-25 10:00:00 19.3 6 Oeste 9 Oeste 0 -- -- 88
2019-08-25 09:00:00 18.5 7 Sudeste 14 Sudeste 0 -- -- 89
2019-08-25 08:00:00 18 9 Sudeste 14 Sudeste 0 -- -- 91
2019-08-25 07:00:00 18.5 6 Sur 8 Sudeste -- -- -- 91
2019-08-25 06:00:00 18.5 5 Sudeste 9 Sudeste 0 -- -- 92
2019-08-25 05:00:00 18.8 5 Sur 9 Sudeste 0 -- -- 90
2019-08-25 04:00:00 18.7 6 Sudeste 9 Sudeste 0 -- -- 92
2019-08-25 03:00:00 18.9 5 Sur 7 Sudeste 0 -- -- 91
2019-08-25 02:00:00 18.9 4 Sudoeste 7 Sudoeste 0 -- -- 91
2019-08-25 01:00:00 19 5 Sudoeste 7 Sudoeste 0 -- -- 91
2019-08-25 00:00:00 19.2 5 Sudoeste 6 Sudoeste 0 -- -- 90
2019-08-24 23:00:00 19.2 2 Sudoeste 10 Oeste 0 -- -- 89
2019-08-24 22:00:00 19.3 5 Noroeste 9 Oeste 0 -- -- 88
2019-08-24 21:00:00 19.5 6 Noroeste 15 Noroeste 0 -- -- 87
2019-08-24 20:00:00 19.6 7 Noroeste 13 Oeste 0 -- -- 88
2019-08-24 19:00:00 19.6 9 Sudoeste 21 Noroeste 0 -- -- 88
2019-08-24 18:00:00 19.9 13 Noroeste 22 Noroeste 0 -- -- 86
2019-08-24 17:00:00 20.3 16 Noroeste 25 Noroeste 0 -- -- 85
2019-08-24 16:00:00 21 14 Noroeste 26 Noroeste 0 -- -- 84
2019-08-24 15:00:00 21.4 17 Noroeste 26 Noroeste 0 -- -- 82
2019-08-24 14:00:00 21.9 15 Noroeste 25 Noroeste 0 -- -- 81
2019-08-24 13:00:00 22.5 18 Noroeste 28 Noroeste 0 -- -- 78
2019-08-24 12:00:00 22.5 15 Noroeste 22 Norte 0 -- -- 80
2019-08-24 11:00:00 22.7 17 Oeste 25 Oeste 0 -- -- 79
2019-08-24 10:00:00 21.1 12 Oeste 24 Oeste 0 -- -- 82
2019-08-24 09:00:00 19.3 10 Oeste 18 Oeste 0 -- -- 79
2019-08-24 08:00:00 17.4 9 Sudoeste 14 Sudoeste 0 -- -- 72
2019-08-24 07:00:00 18 11 Sudoeste 15 Sudoeste 0 -- -- 68
2019-08-24 06:00:00 18.9 7 Sudoeste 14 Oeste 0 -- -- 64
2019-08-24 05:00:00 19.9 8 Oeste 15 Oeste 0 -- -- 61
2019-08-24 04:00:00 20.6 8 Sur 17 Sudeste 0 -- -- 56
2019-08-24 03:00:00 20.5 10 Sur 20 Sudeste 0 -- -- 59
2019-08-24 02:00:00 20.7 10 Sur 21 Sudeste 0 -- -- 61
2019-08-24 01:00:00 21.3 14 Sur 21 Sudeste 0 -- -- 62
2019-08-24 00:00:00 21.9 10 Sur 21 Sudeste 0 -- -- 62
2019-08-23 23:00:00 22.5 8 Sur 13 Sur 0 -- -- 65
2019-08-23 22:00:00 22.8 10 Sur 12 Sudeste 0 -- -- 71
2019-08-23 21:00:00 22.9 6 Nordeste 11 Nordeste 0 -- -- 78
2019-08-23 20:00:00 27.1 4 Nordeste 5 Nordeste 0 -- -- 63
2019-08-23 19:00:00 27.9 5 Norte 14 Nordeste 0 -- -- 60
2019-08-23 18:00:00 27.1 12 Nordeste 16 Nordeste 0 -- -- 59
2019-08-23 17:00:00 27.8 11 Norte 17 Nordeste 0 -- -- 59
2019-08-23 16:00:00 27.9 10 Nordeste 15 Norte 0 -- -- 61
2019-08-23 15:00:00 27.4 10 Norte 15 Norte 0 -- -- 62
2019-08-23 14:00:00 26.7 7 Norte 13 Norte 0 -- -- 64
2019-08-23 13:00:00 25.9 3 Nordeste 12 Nordeste 0 -- -- 57
2019-08-23 12:00:00 24 4 Este 8 Este 0 -- -- 58
2019-08-23 11:00:00 21.8 5 Este 10 Sur 0 -- -- 58
2019-08-23 10:00:00 18.3 8 Sur 12 Sudeste 0 -- -- 63
2019-08-23 09:00:00 16 8 Sur 19 Sudeste 0 -- -- 69
2019-08-23 08:00:00 14 12 Sur 17 Sudeste 0 -- -- 77
2019-08-23 07:00:00 13.5 12 Sur 20 Sudeste 0 -- -- 83
2019-08-23 06:00:00 14.1 4 Sur 14 Sudeste 0 -- -- 88
2019-08-23 05:00:00 14.3 12 Sudeste 21 Sudeste 0 -- -- 90
2019-08-23 04:00:00 14.8 7 Sur 20 Sudeste 0 -- -- 93
2019-08-23 03:00:00 15 11 Sudeste 22 Sudeste 0 -- -- 92
2019-08-23 02:00:00 15.9 14 Sudeste 17 Sudeste 0 -- -- 90
2019-08-23 01:00:00 16 10 Sudeste 15 Sudeste 0 -- -- 89
2019-08-23 00:00:00 17.1 10 Sudeste 14 Sudeste 0 -- -- 83
2019-08-22 23:00:00 19 8 Este 13 Este 0 -- -- 74
2019-08-22 22:00:00 19.9 8 Este 10 Sudeste 0 -- -- 68
2019-08-22 21:00:00 21.3 5 Nordeste 15 Nordeste 0 -- -- 67
2019-08-22 20:00:00 23.2 11 Este 21 Este 0 -- -- 62
2019-08-22 19:00:00 24.5 14 Este 27 Nordeste 0 -- -- 62
2019-08-22 18:00:00 24.9 20 Este 34 Este 0 -- -- 63
2019-08-22 17:00:00 25.7 20 Este 34 Este 0 -- -- 56
2019-08-22 16:00:00 25.7 26 Este 34 Este 0 -- -- 54
2019-08-22 15:00:00 26.3 18 Este 30 Este 0 -- -- 56
2019-08-22 14:00:00 26.1 21 Este 28 Este 0 -- -- 54
2019-08-22 13:00:00 25.1 12 Nordeste 20 Nordeste 0 -- -- 62
2019-08-22 12:00:00 23.5 8 Sudeste 14 Sudeste 0 -- -- 55
2019-08-22 11:00:00 20.9 5 Sudeste 17 Sudeste 0 -- -- 70
2019-08-22 10:00:00 18 9 Sur 18 Sudeste 0 -- -- 75
2019-08-22 09:00:00 15.8 9 Sur 19 Sudeste 0 -- -- 81
2019-08-22 08:00:00 13.9 15 Sudeste 22 Sudeste 0 -- -- 89
2019-08-22 07:00:00 13.8 11 Sur 19 Sudeste 0 -- -- 91
2019-08-22 06:00:00 14.1 17 Sudeste 23 Sudeste 0 -- -- 92
2019-08-22 05:00:00 14.7 15 Sudeste 21 Sudeste 0 -- -- 93
2019-08-22 04:00:00 14.9 13 Sudeste 21 Sudeste 0 -- -- 93
2019-08-22 03:00:00 15.5 9 Sur 15 Sudeste 0 -- -- 91
2019-08-22 02:00:00 16.1 9 Sur 22 Sudeste 0 -- -- 91
2019-08-22 01:00:00 16.6 10 Sudeste 15 Sudeste 0 -- -- 91
2019-08-22 00:00:00 17.4 9 Sudoeste 10 Oeste 0 -- -- 88
2019-08-21 23:00:00 18.5 6 Sudoeste 8 Sudoeste 0 -- -- 86
2019-08-21 22:00:00 19 4 Sur 15 Nordeste 0 -- -- 84
2019-08-21 21:00:00 20 6 Nordeste 17 Nordeste 0 -- -- 81
2019-08-21 20:00:00 21.7 12 Nordeste 20 Este -- -- -- 76
2019-08-21 19:00:00 23 13 Nordeste 22 Nordeste 0 -- -- 70
2019-08-21 18:00:00 23.6 17 Nordeste 23 Nordeste 0 -- -- 69
2019-08-21 17:00:00 23.5 17 Nordeste 30 Nordeste 0 -- -- 69
2019-08-21 16:00:00 23.5 20 Nordeste 29 Nordeste 0 -- -- 70
2019-08-21 15:00:00 23.4 15 Nordeste 24 Nordeste 0 -- -- 68
2019-08-21 14:00:00 22.9 15 Nordeste 21 Nordeste 0 -- -- 69
2019-08-21 13:00:00 22.7 8 Nordeste 22 Este 0 -- -- 69
2019-08-21 12:00:00 21.6 3 Noroeste 10 Nordeste 0 -- -- 73
2019-08-21 11:00:00 19.6 0 Calma 9 Sudeste 0 -- -- 76
2019-08-21 10:00:00 18 7 Sudeste 15 Sudeste 0 -- -- 80
2019-08-21 09:00:00 16.1 7 Sudeste 16 Sur -- -- -- 89
2019-08-21 08:00:00 14 4 Sudoeste 21 Sudeste 0 -- -- 93
2019-08-21 07:00:00 14.1 9 Sur 19 Sudeste 0 -- -- 92
2019-08-21 06:00:00 14.6 6 Sur 19 Sudeste 0 -- -- 91
2019-08-21 05:00:00 15.1 14 Sudeste 20 Sudeste 0 -- -- 89
2019-08-21 04:00:00 15 10 Sudeste 17 Sudeste 0 -- -- 90
2019-08-21 03:00:00 14.8 6 Sur 13 Sudeste 0 -- -- 91
2019-08-21 02:00:00 14.6 8 Sur 19 Sudeste 0 -- -- 91
2019-08-21 01:00:00 15.3 5 Sur 10 Sur 0 -- -- 88
2019-08-21 00:00:00 16.3 3 Sudeste 11 Sudeste 0 -- -- 85